Time;durP1;ratioP1;P1;durP2;ratioP2;P2;SDS_P1;SDS_P2;PMS_P1;PMS_P2;Temp;Humidity;BMP_temperature;BMP_pressure;BME280_temperature;BME280_humidity;BME280_pressure;Samples;Min_cycle;Max_cycle;Signal;HPM_P1;HPM_P2
2023/06/19 00:00:19;;;;;;;7.33;6.63;;;22.60;1.00;;;;;;5118543;28;20464;-55
2023/06/19 00:02:47;;;;;;;7.97;7.37;;;22.50;1.00;;;;;;5118046;28;20586;-54
2023/06/19 00:05:15;;;;;;;8.00;7.30;;;22.50;1.00;;;;;;5118026;28;20525;-56
2023/06/19 00:07:42;;;;;;;7.00;6.30;;;22.40;1.00;;;;;;5118806;28;20455;-56
2023/06/19 00:10:10;;;;;;;6.47;5.97;;;22.40;1.00;;;;;;5118255;28;20470;-55
2023/06/19 00:12:37;;;;;;;7.90;7.10;;;22.30;1.00;;;;;;5118428;28;20459;-56
2023/06/19 00:15:05;;;;;;;7.07;6.50;;;22.20;30.20;;;;;;5118512;28;20509;-56
2023/06/19 00:17:32;;;;;;;6.77;6.27;;;22.00;85.60;;;;;;5118475;28;20486;-57
2023/06/19 00:20:01;;;;;;;6.60;6.10;;;22.00;99.90;;;;;;5117794;28;20478;-56
2023/06/19 00:22:28;;;;;;;7.97;7.27;;;22.00;99.90;;;;;;5117967;28;20459;-57
2023/06/19 00:24:55;;;;;;;7.40;6.80;;;21.90;99.90;;;;;;5118011;28;20791;-56
2023/06/19 00:27:24;;;;;;;8.37;7.67;;;21.90;99.90;;;;;;5118513;28;20460;-56
2023/06/19 00:29:52;;;;;;;6.93;6.40;;;21.90;99.90;;;;;;5118283;28;20486;-56
2023/06/19 00:32:20;;;;;;;7.97;7.17;;;21.90;99.90;;;;;;5117947;28;20748;-54
2023/06/19 00:34:47;;;;;;;6.93;6.27;;;21.80;99.90;;;;;;5118286;28;20456;-54
2023/06/19 00:37:15;;;;;;;7.00;6.40;;;21.80;99.90;;;;;;5117520;28;20562;-56
2023/06/19 00:39:42;;;;;;;6.93;6.43;;;21.80;99.90;;;;;;5118361;28;20460;-56
2023/06/19 00:42:10;;;;;;;7.53;7.03;;;21.80;99.90;;;;;;5117519;28;20459;-56
2023/06/19 00:44:37;;;;;;;6.83;6.27;;;21.70;99.90;;;;;;5117858;28;20498;-56
2023/06/19 00:47:05;;;;;;;6.80;6.20;;;21.70;99.90;;;;;;5118291;28;20459;-57
2023/06/19 00:49:33;;;;;;;6.97;6.37;;;21.70;99.90;;;;;;5117945;28;20803;-57
2023/06/19 00:52:00;;;;;;;6.60;6.10;;;21.80;99.90;;;;;;5117356;28;20529;-56
2023/06/19 00:54:31;;;;;;;6.83;6.33;;;21.70;99.90;;;;;;5117770;28;20455;-56
2023/06/19 00:56:58;;;;;;;7.17;6.57;;;21.70;99.90;;;;;;5118120;28;20463;-56
2023/06/19 00:59:25;;;;;;;7.40;6.70;;;21.70;99.90;;;;;;5117936;28;20466;-56
2023/06/19 01:01:52;;;;;;;7.27;6.67;;;21.70;99.90;;;;;;5117314;28;20474;-58
2023/06/19 01:04:19;;;;;;;7.53;6.93;;;21.60;99.90;;;;;;5117231;28;20499;-56
2023/06/19 01:06:57;;;;;;;7.50;6.80;;;21.50;99.90;;;;;;5117861;28;20489;-56
2023/06/19 01:09:30;;;;;;;7.00;6.40;;;21.50;99.90;;;;;;5117923;28;20474;-57
2023/06/19 01:12:02;;;;;;;6.87;6.37;;;21.50;99.90;;;;;;5117668;28;20459;-56
2023/06/19 01:14:39;;;;;;;7.40;6.80;;;21.50;99.90;;;;;;5117656;28;20508;-56
2023/06/19 01:17:07;;;;;;;7.07;6.47;;;21.50;99.90;;;;;;5117417;28;20466;-56
2023/06/19 01:19:35;;;;;;;8.37;7.67;;;21.50;99.90;;;;;;5117805;28;20466;-57
2023/06/19 01:22:06;;;;;;;7.37;6.77;;;21.50;99.90;;;;;;5117318;28;20516;-56
2023/06/19 01:24:33;;;;;;;6.70;6.20;;;21.50;99.90;;;;;;5117345;28;20797;-56
2023/06/19 01:27:00;;;;;;;8.00;7.30;;;21.40;99.90;;;;;;5117291;28;20873;-56
2023/06/19 01:29:28;;;;;;;7.20;6.60;;;21.50;99.90;;;;;;5117526;28;20462;-54
2023/06/19 01:32:00;;;;;;;7.30;6.70;;;21.50;99.90;;;;;;5117477;28;20464;-55
2023/06/19 01:34:30;;;;;;;7.80;7.20;;;21.50;99.90;;;;;;5117303;28;20459;-55
2023/06/19 01:36:58;;;;;;;7.87;7.17;;;21.60;99.90;;;;;;5117216;28;20459;-55
2023/06/19 01:39:27;;;;;;;7.93;7.30;;;21.50;99.90;;;;;;5117610;28;20459;-56
2023/06/19 01:41:56;;;;;;;7.40;6.90;;;21.50;99.90;;;;;;5117695;28;20460;-56
2023/06/19 01:44:23;;;;;;;6.93;6.33;;;21.60;99.90;;;;;;5117137;28;20514;-56
2023/06/19 01:46:51;;;;;;;7.20;6.60;;;21.60;99.90;;;;;;5117328;28;20459;-56
2023/06/19 01:49:19;;;;;;;7.50;6.90;;;21.60;99.90;;;;;;5118537;28;20461;-56
2023/06/19 01:51:46;;;;;;;8.50;7.80;;;21.60;99.90;;;;;;5121528;28;20455;-55
2023/06/19 01:54:13;;;;;;;8.23;7.53;;;21.60;99.90;;;;;;5121153;28;20555;-56
2023/06/19 01:56:42;;;;;;;9.13;8.37;;;21.50;99.90;;;;;;5120987;28;20508;-56
2023/06/19 01:59:09;;;;;;;7.40;6.83;;;21.50;99.90;;;;;;5121210;28;20459;-56
2023/06/19 02:01:36;;;;;;;9.30;8.60;;;21.50;99.90;;;;;;5121088;28;20887;-56
2023/06/19 02:04:04;;;;;;;8.93;7.97;;;21.50;99.90;;;;;;5120353;28;20853;-56
2023/06/19 02:06:31;;;;;;;8.43;7.60;;;21.60;99.90;;;;;;5121072;28;20844;-56
2023/06/19 02:08:58;;;;;;;8.90;8.10;;;21.60;99.90;;;;;;5120718;28;20460;-55
2023/06/19 02:11:26;;;;;;;8.20;7.50;;;21.70;99.90;;;;;;5121042;28;20459;-56
2023/06/19 02:13:54;;;;;;;8.90;8.10;;;21.70;92.70;;;;;;5121108;28;20459;-56
2023/06/19 02:16:21;;;;;;;8.83;7.83;;;21.70;83.30;;;;;;5120402;28;20551;-56
2023/06/19 02:18:48;;;;;;;7.70;6.90;;;21.60;80.60;;;;;;5120316;28;20542;-56
2023/06/19 02:21:16;;;;;;;8.03;7.37;;;21.60;67.90;;;;;;5120571;28;20463;-56
2023/06/19 02:23:43;;;;;;;7.43;6.83;;;21.60;77.50;;;;;;5120679;28;20553;-56
2023/06/19 02:26:10;;;;;;;8.60;7.80;;;21.60;83.60;;;;;;5120214;28;20497;-56
2023/06/19 02:28:37;;;;;;;7.60;7.00;;;21.50;67.00;;;;;;5120679;28;20511;-57
2023/06/19 02:31:06;;;;;;;7.03;6.50;;;21.50;39.80;;;;;;5120468;28;20892;-56
2023/06/19 02:33:33;;;;;;;8.77;7.97;;;21.60;27.10;;;;;;5120662;28;20459;-55
2023/06/19 02:36:01;;;;;;;8.67;8.00;;;21.70;15.80;;;;;;5120077;28;20459;-55
2023/06/19 02:38:29;;;;;;;8.63;7.90;;;21.70;8.50;;;;;;5120194;28;20566;-55
2023/06/19 02:40:57;;;;;;;9.00;8.20;;;21.70;1.00;;;;;;5120201;28;20468;-55
2023/06/19 02:43:24;;;;;;;9.40;8.60;;;21.80;1.00;;;;;;5120621;28;20802;-56
2023/06/19 02:45:51;;;;;;;8.30;7.60;;;21.80;1.00;;;;;;5120205;28;20783;-54
2023/06/19 02:48:20;;;;;;;9.27;8.37;;;21.90;1.00;;;;;;5119763;28;20876;-54
2023/06/19 02:50:48;;;;;;;8.57;7.93;;;21.90;1.00;;;;;;5120230;28;20764;-55
2023/06/19 02:53:16;;;;;;;7.90;7.30;;;22.00;1.00;;;;;;5120355;28;20466;-55
2023/06/19 02:55:43;;;;;;;8.73;8.03;;;21.90;1.00;;;;;;5120108;27;20957;-55
2023/06/19 02:58:10;;;;;;;9.80;8.90;;;21.90;1.00;;;;;;5119532;27;20460;-56
2023/06/19 03:00:37;;;;;;;8.40;7.60;;;21.90;1.00;;;;;;5119171;28;20466;-56
2023/06/19 03:03:05;;;;;;;8.40;7.70;;;21.90;1.00;;;;;;5119731;28;20513;-55
2023/06/19 03:05:33;;;;;;;8.10;7.50;;;21.90;1.00;;;;;;5119376;28;20879;-56
2023/06/19 03:08:01;;;;;;;8.20;7.40;;;21.90;1.00;;;;;;5119444;28;20470;-56
2023/06/19 03:10:28;;;;;;;7.27;6.67;;;22.00;1.00;;;;;;5119720;28;20460;-55
2023/06/19 03:12:55;;;;;;;7.10;6.40;;;22.10;1.00;;;;;;5119474;28;20459;-56
2023/06/19 03:15:22;;;;;;;7.20;6.60;;;22.10;1.00;;;;;;5119656;28;20482;-55
2023/06/19 03:17:49;;;;;;;8.23;6.60;;;22.20;1.00;;;;;;5119609;28;20550;-56
2023/06/19 03:20:17;;;;;;;6.67;6.07;;;22.20;1.00;;;;;;5119131;28;20554;-56
2023/06/19 03:22:45;;;;;;;6.60;6.10;;;22.20;1.00;;;;;;5119550;28;20464;-56
2023/06/19 03:25:13;;;;;;;6.73;6.23;;;22.20;1.00;;;;;;5119535;28;20582;-54
2023/06/19 03:27:40;;;;;;;6.97;6.37;;;22.10;1.00;;;;;;5119639;28;20469;-55
2023/06/19 03:30:12;;;;;;;7.97;6.77;;;22.10;1.00;;;;;;5118621;28;20542;-54
2023/06/19 03:32:40;;;;;;;7.53;6.50;;;22.00;1.00;;;;;;5119598;28;20456;-53
2023/06/19 03:35:07;;;;;;;6.60;6.00;;;22.00;1.00;;;;;;5119522;28;20744;-55
2023/06/19 03:37:34;;;;;;;7.10;6.50;;;21.90;1.00;;;;;;5119176;28;20464;-54
2023/06/19 03:40:05;;;;;;;8.20;6.57;;;21.80;1.00;;;;;;5118844;28;20550;-54
2023/06/19 03:42:32;;;;;;;7.90;7.30;;;21.80;15.10;;;;;;5119191;28;20459;-55
2023/06/19 03:44:59;;;;;;;6.63;6.03;;;21.70;56.00;;;;;;5118782;28;20483;-54
2023/06/19 03:47:26;;;;;;;6.43;5.93;;;21.60;99.90;;;;;;5119024;28;20499;-55
2023/06/19 03:49:54;;;;;;;6.80;6.20;;;21.40;99.90;;;;;;5118859;28;20980;-55
2023/06/19 03:52:21;;;;;;;6.97;6.27;;;21.30;99.90;;;;;;5118519;28;20470;-55
2023/06/19 03:54:48;;;;;;;6.10;5.60;;;21.20;99.90;;;;;;5118875;28;20455;-55
2023/06/19 03:57:16;;;;;;;6.70;6.10;;;21.10;1.00;;;;;;5118815;28;20459;-56
2023/06/19 03:59:44;;;;;;;6.00;5.60;;;21.10;1.00;;;;;;5118799;28;20554;-54
2023/06/19 04:02:11;;;;;;;6.33;5.70;;;21.00;1.00;;;;;;5117630;28;20555;-57
2023/06/19 04:04:38;;;;;;;5.77;5.27;;;21.00;1.00;;;;;;5118297;28;20566;-54
2023/06/19 04:07:06;;;;;;;6.27;5.57;;;20.90;1.00;;;;;;5118611;28;20747;-53
2023/06/19 04:09:33;;;;;;;6.10;5.10;;;20.90;23.10;;;;;;5118541;28;20459;-53
2023/06/19 04:12:04;;;;;;;8.00;6.00;;;20.90;39.20;;;;;;5117501;28;20468;-55
2023/06/19 04:14:32;;;;;;;6.47;5.87;;;20.80;81.90;;;;;;5118143;28;20459;-55
2023/06/19 04:17:00;;;;;;;6.87;6.27;;;20.80;99.90;;;;;;5118378;28;20884;-54
2023/06/19 04:19:27;;;;;;;5.40;4.90;;;20.70;99.90;;;;;;5118470;28;20464;-55
2023/06/19 04:21:55;;;;;;;5.73;5.23;;;20.70;99.90;;;;;;5117975;28;20491;-54
2023/06/19 04:24:22;;;;;;;5.23;4.83;;;20.60;99.90;;;;;;5118572;28;20463;-52
2023/06/19 04:26:49;;;;;;;5.53;5.13;;;20.50;99.90;;;;;;5117834;28;20491;-54
2023/06/19 04:29:16;;;;;;;5.20;4.80;;;20.50;1.00;;;;;;5118185;28;20558;-62
2023/06/19 04:31:46;;;;;;;5.67;5.17;;;20.50;1.00;;;;;;5117831;28;20470;-61
2023/06/19 04:34:15;;;;;;;5.47;5.07;;;20.50;1.00;;;;;;5118085;28;20459;-61
2023/06/19 04:36:42;;;;;;;5.30;4.90;;;20.40;1.00;;;;;;5118383;28;20753;-62
2023/06/19 04:39:09;;;;;;;6.50;4.60;;;20.50;1.00;;;;;;5118046;28;20468;-61
2023/06/19 04:41:38;;;;;;;5.10;4.70;;;20.50;1.00;;;;;;5118068;28;20487;-61
2023/06/19 04:44:06;;;;;;;5.20;4.80;;;20.50;1.00;;;;;;5117776;28;20529;-60
2023/06/19 04:46:33;;;;;;;6.17;5.10;;;20.40;1.00;;;;;;5117827;28;20495;-60
2023/06/19 04:49:03;;;;;;;5.93;5.37;;;20.40;1.00;;;;;;5118223;28;20864;-61
2023/06/19 04:51:32;;;;;;;5.23;4.83;;;20.40;1.00;;;;;;5118270;28;20464;-60
2023/06/19 04:53:59;;;;;;;5.27;4.80;;;20.40;1.00;;;;;;5117481;28;20502;-60
2023/06/19 04:56:27;;;;;;;5.27;4.83;;;20.50;1.00;;;;;;5118088;28;20475;-60
2023/06/19 04:58:55;;;;;;;5.23;4.73;;;20.40;1.00;;;;;;5117943;28;20467;-60
2023/06/19 05:01:27;;;;;;;4.93;4.53;;;20.40;5.40;;;;;;5115942;28;20460;-59
2023/06/19 05:03:55;;;;;;;5.60;5.00;;;20.30;7.90;;;;;;5115459;28;20920;-60
2023/06/19 05:06:24;;;;;;;5.30;4.80;;;20.40;32.80;;;;;;5115303;28;20484;-60
2023/06/19 05:08:52;;;;;;;5.80;5.30;;;20.30;20.60;;;;;;5115366;28;20458;-63
2023/06/19 05:11:19;;;;;;;5.50;5.07;;;20.40;37.20;;;;;;5116242;28;20714;-59
2023/06/19 05:13:46;;;;;;;5.30;3.87;;;20.30;47.00;;;;;;5114674;28;20855;-59
2023/06/19 05:16:16;;;;;;;5.23;4.83;;;20.30;99.90;;;;;;5110594;28;20520;-61
2023/06/19 05:18:44;;;;;;;5.77;4.80;;;20.30;52.20;;;;;;5111282;28;20463;-60
2023/06/19 05:21:11;;;;;;;4.87;4.13;;;20.40;51.30;;;;;;5116550;28;20455;-60
2023/06/19 05:23:40;;;;;;;4.80;4.40;;;20.50;1.00;;;;;;5118631;28;20450;-60
2023/06/19 05:26:07;;;;;;;4.70;4.30;;;20.60;1.00;;;;;;5119271;28;20943;-61
2023/06/19 05:28:34;;;;;;;5.10;3.90;;;20.70;1.00;;;;;;5118831;28;20884;-59
2023/06/19 05:31:02;;;;;;;4.50;4.20;;;20.70;1.00;;;;;;5114578;28;20574;-59
2023/06/19 05:33:29;;;;;;;4.63;4.23;;;20.60;1.00;;;;;;5114709;28;20916;-60
2023/06/19 05:35:56;;;;;;;4.23;3.83;;;20.70;1.00;;;;;;5119057;28;20486;-58
2023/06/19 05:38:25;;;;;;;5.17;4.67;;;20.70;1.00;;;;;;5118879;28;20436;-59
2023/06/19 05:40:54;;;;;;;4.10;3.70;;;20.70;1.00;;;;;;5119661;28;20927;-59
2023/06/19 05:43:21;;;;;;;4.67;4.23;;;20.80;1.00;;;;;;5118670;27;20464;-60
2023/06/19 05:45:49;;;;;;;3.83;3.53;;;20.70;1.00;;;;;;5120688;28;20585;-59
2023/06/19 05:48:16;;;;;;;5.30;4.17;;;20.70;1.00;;;;;;5120524;28;20873;-58
2023/06/19 05:50:43;;;;;;;4.13;3.80;;;20.80;1.00;;;;;;5120734;28;20492;-57
2023/06/19 05:53:10;;;;;;;5.13;4.13;;;20.80;1.00;;;;;;5120091;28;20459;-60
2023/06/19 05:55:38;;;;;;;4.53;4.03;;;20.90;1.00;;;;;;5121381;28;20466;-59
2023/06/19 05:58:06;;;;;;;5.60;5.10;;;20.80;1.00;;;;;;5120634;28;20871;-58
2023/06/19 06:00:34;;;;;;;4.60;4.20;;;20.90;1.00;;;;;;5119693;28;20857;-59
2023/06/19 06:03:02;;;;;;;4.10;3.80;;;20.80;1.00;;;;;;5109968;28;20967;-58
2023/06/19 06:05:29;;;;;;;7.07;4.10;;;21.00;1.00;;;;;;5120964;28;20498;-58
2023/06/19 06:07:57;;;;;;;4.50;4.10;;;21.10;1.00;;;;;;5121338;28;20875;-60
2023/06/19 06:10:25;;;;;;;3.90;3.60;;;21.20;1.00;;;;;;5120672;28;20541;-58
2023/06/19 06:12:52;;;;;;;4.90;4.50;;;21.30;99.90;;;;;;5116143;28;20558;-57
2023/06/19 06:15:21;;;;;;;4.73;4.27;;;21.30;1.00;;;;;;5101234;28;20559;-58
2023/06/19 06:17:48;;;;;;;4.30;4.00;;;21.40;99.90;;;;;;5113032;28;20507;-58
2023/06/19 06:20:16;;;;;;;5.10;4.60;;;21.40;99.90;;;;;;5105994;28;20471;-60
2023/06/19 06:22:44;;;;;;;4.43;4.13;;;21.50;99.90;;;;;;5120502;28;20532;-58
2023/06/19 06:25:11;;;;;;;4.80;3.87;;;21.60;99.90;;;;;;5120609;28;20562;-58
2023/06/19 06:27:38;;;;;;;4.20;3.80;;;21.60;99.90;;;;;;5119740;28;20460;-58
2023/06/19 06:30:07;;;;;;;4.43;4.03;;;21.60;99.90;;;;;;5112081;28;20471;-59
2023/06/19 06:32:35;;;;;;;3.53;3.23;;;21.60;99.90;;;;;;5105289;28;20472;-58
2023/06/19 06:35:03;;;;;;;4.03;3.70;;;21.60;87.60;;;;;;5101597;28;20472;-59
2023/06/19 06:37:30;;;;;;;3.40;3.10;;;21.80;31.10;;;;;;5120274;28;20459;-59
2023/06/19 06:39:57;;;;;;;3.47;3.17;;;21.80;23.80;;;;;;5120074;28;20546;-59
2023/06/19 06:42:25;;;;;;;3.90;3.33;;;21.80;1.00;;;;;;5115474;28;20463;-58
2023/06/19 06:44:52;;;;;;;6.03;3.60;;;21.70;1.00;;;;;;5101011;28;20559;-58
2023/06/19 06:47:19;;;;;;;3.70;3.20;;;21.70;1.00;;;;;;5115934;28;20514;-58
2023/06/19 06:49:48;;;;;;;3.30;3.00;;;21.70;1.00;;;;;;5108687;28;20564;-57
2023/06/19 06:52:15;;;;;;;3.93;3.63;;;21.90;1.00;;;;;;5097872;28;20775;-57
2023/06/19 06:54:42;;;;;;;4.73;3.53;;;21.80;1.00;;;;;;5107454;28;20499;-57
2023/06/19 06:57:10;;;;;;;3.70;3.40;;;21.90;1.00;;;;;;5113323;28;20795;-58
2023/06/19 06:59:37;;;;;;;3.57;3.27;;;22.00;1.00;;;;;;5117930;27;20508;-57
2023/06/19 07:02:05;;;;;;;6.20;3.93;;;22.20;1.00;;;;;;5105212;28;20472;-58
2023/06/19 07:04:32;;;;;;;4.33;3.77;;;22.20;1.00;;;;;;5103310;28;20471;-59
2023/06/19 07:07:03;;;;;;;3.80;3.50;;;22.50;1.00;;;;;;5111251;27;20486;-57
2023/06/19 07:09:30;;;;;;;4.00;3.47;;;22.50;1.00;;;;;;5107426;27;20549;-58
2023/06/19 07:11:58;;;;;;;3.60;3.30;;;22.70;1.00;;;;;;5128380;27;20550;-58
2023/06/19 07:14:25;;;;;;;3.43;3.13;;;22.50;1.00;;;;;;5113124;27;20456;-58
2023/06/19 07:16:52;;;;;;;3.53;3.23;;;22.40;1.00;;;;;;5111503;27;20570;-59
2023/06/19 07:19:20;;;;;;;3.17;2.97;;;22.40;1.00;;;;;;5121802;27;20990;-57
2023/06/19 07:21:47;;;;;;;3.87;3.10;;;22.30;1.00;;;;;;5120722;27;20468;-58
2023/06/19 07:24:16;;;;;;;2.97;2.77;;;22.20;1.00;;;;;;5117406;27;20553;-55
2023/06/19 07:26:43;;;;;;;3.43;3.00;;;22.20;1.00;;;;;;5127376;27;20488;-59
2023/06/19 07:29:10;;;;;;;4.13;3.50;;;22.20;1.00;;;;;;5125723;27;20952;-58
2023/06/19 07:31:38;;;;;;;3.10;2.83;;;22.30;1.00;;;;;;5122625;27;20502;-56
2023/06/19 07:34:05;;;;;;;3.30;3.00;;;22.30;1.00;;;;;;5103357;27;20801;-60
2023/06/19 07:36:32;;;;;;;3.53;3.23;;;22.20;1.00;;;;;;5116049;27;20659;-58
2023/06/19 07:39:00;;;;;;;4.23;3.60;;;22.10;1.00;;;;;;5125520;27;20900;-58
2023/06/19 07:41:28;;;;;;;3.47;3.17;;;22.10;1.00;;;;;;5107858;27;20459;-58
2023/06/19 07:43:56;;;;;;;4.40;3.10;;;21.90;1.00;;;;;;5115833;27;20912;-57
2023/06/19 07:46:23;;;;;;;3.87;3.57;;;22.00;1.00;;;;;;5121876;27;20570;-58
2023/06/19 07:48:50;;;;;;;3.80;3.50;;;22.20;1.00;;;;;;5116410;27;20460;-58
2023/06/19 07:51:18;;;;;;;3.47;3.17;;;22.30;1.00;;;;;;5114255;28;20575;-59
2023/06/19 07:53:45;;;;;;;3.43;3.20;;;22.30;1.00;;;;;;5115779;28;20455;-57
2023/06/19 07:56:12;;;;;;;4.87;4.27;;;22.10;1.00;;;;;;5116061;28;20447;-57
2023/06/19 07:58:41;;;;;;;3.73;3.43;;;22.30;1.00;;;;;;5116291;27;20566;-57
2023/06/19 08:01:10;;;;;;;4.00;3.70;;;22.20;1.00;;;;;;5115694;28;20938;-57
2023/06/19 08:03:37;;;;;;;4.00;3.60;;;22.20;1.00;;;;;;5106191;28;20586;-58
2023/06/19 08:06:04;;;;;;;3.97;3.67;;;22.30;1.00;;;;;;5115139;28;20586;-58
2023/06/19 08:08:32;;;;;;;4.17;3.77;;;22.40;1.00;;;;;;5115421;28;20870;-58
2023/06/19 08:10:59;;;;;;;3.77;3.47;;;22.60;1.00;;;;;;5116547;28;20472;-58
2023/06/19 08:13:26;;;;;;;3.73;3.43;;;22.70;1.00;;;;;;5117836;28;20884;-58
2023/06/19 08:15:55;;;;;;;4.30;3.90;;;22.60;1.00;;;;;;5121564;27;20581;-59
2023/06/19 08:18:22;;;;;;;4.90;3.80;;;22.40;1.00;;;;;;5117942;28;20868;-58
2023/06/19 08:20:49;;;;;;;4.00;3.70;;;22.10;7.40;;;;;;5117767;28;20456;-59
2023/06/19 08:23:17;;;;;;;4.30;3.90;;;21.90;1.00;;;;;;5118024;28;20459;-57
2023/06/19 08:25:44;;;;;;;5.47;4.23;;;21.90;11.00;;;;;;5118354;28;20459;-57
2023/06/19 08:28:11;;;;;;;7.40;3.67;;;21.90;99.90;;;;;;5118091;27;20703;-58
2023/06/19 08:30:38;;;;;;;4.07;3.67;;;21.90;99.90;;;;;;5118137;28;20553;-58
2023/06/19 08:33:08;;;;;;;3.93;3.63;;;21.90;99.90;;;;;;5117938;28;20455;-58
2023/06/19 08:35:35;;;;;;;4.67;4.27;;;21.80;99.90;;;;;;5118075;28;20459;-60
2023/06/19 08:38:02;;;;;;;4.27;3.97;;;21.70;99.90;;;;;;5117792;28;21001;-56
2023/06/19 08:40:30;;;;;;;5.83;3.77;;;21.60;99.90;;;;;;5117986;28;20498;-58
2023/06/19 08:42:57;;;;;;;7.87;3.83;;;21.60;99.90;;;;;;5117947;28;20485;-58
2023/06/19 08:45:27;;;;;;;4.00;2.90;;;21.50;1.00;;;;;;5118515;28;20456;-58
2023/06/19 08:47:59;;;;;;;4.97;4.10;;;21.50;1.00;;;;;;5118069;28;20579;-57
2023/06/19 08:50:28;;;;;;;3.67;3.27;;;21.50;1.00;;;;;;5117504;28;20904;-57
2023/06/19 08:52:56;;;;;;;4.63;4.20;;;21.50;99.90;;;;;;5116573;28;20506;-57
2023/06/19 08:55:23;;;;;;;5.53;3.90;;;21.80;99.90;;;;;;5117727;28;20467;-58
2023/06/19 08:57:52;;;;;;;5.77;4.30;;;22.30;99.90;;;;;;5116927;28;20466;-54
2023/06/19 09:00:26;;;;;;;4.50;4.10;;;22.70;35.90;;;;;;5117548;28;20463;-58
2023/06/19 09:02:53;;;;;;;5.03;3.70;;;23.20;1.00;;;;;;5116924;28;20780;-57
2023/06/19 09:05:21;;;;;;;6.03;4.20;;;23.40;1.00;;;;;;5117988;28;20533;-55
2023/06/19 09:07:58;;;;;;;6.43;4.53;;;23.70;1.00;;;;;;5116897;28;20483;-58
2023/06/19 09:10:26;;;;;;;4.97;4.17;;;23.90;1.00;;;;;;5116101;28;20485;-57
2023/06/19 09:13:00;;;;;;;4.13;3.83;;;24.20;99.90;;;;;;5115658;28;20466;-55
2023/06/19 09:15:32;;;;;;;6.60;4.23;;;24.00;99.90;;;;;;5115923;28;20582;-58
2023/06/19 09:18:04;;;;;;;5.10;4.67;;;24.30;99.90;;;;;;5115740;28;20553;-58
2023/06/19 09:20:32;;;;;;;5.33;4.07;;;24.50;99.90;;;;;;5115727;28;20455;-57
2023/06/19 09:23:01;;;;;;;4.47;4.13;;;24.50;99.90;;;;;;5115808;28;20491;-52
2023/06/19 09:25:28;;;;;;;6.17;4.50;;;24.50;99.90;;;;;;5117087;28;20554;-58
2023/06/19 09:27:55;;;;;;;5.63;4.53;;;24.30;99.90;;;;;;5116504;28;20643;-58
2023/06/19 09:30:23;;;;;;;4.80;4.40;;;24.80;99.90;;;;;;5117109;28;20840;-58
2023/06/19 09:32:51;;;;;;;4.33;3.90;;;25.20;99.90;;;;;;5117262;28;20477;-54
2023/06/19 09:35:18;;;;;;;7.30;4.17;;;25.00;99.90;;;;;;5116823;28;20455;-59
2023/06/19 09:37:47;;;;;;;4.03;3.73;;;24.90;99.90;;;;;;5117540;28;20455;-58
2023/06/19 09:40:16;;;;;;;5.40;4.43;;;24.70;99.90;;;;;;5117281;28;20736;-58
2023/06/19 09:42:44;;;;;;;4.30;3.90;;;24.60;99.90;;;;;;5115417;28;20466;-58
2023/06/19 09:45:15;;;;;;;4.97;4.57;;;24.30;99.90;;;;;;5115782;28;20864;-59
2023/06/19 09:47:45;;;;;;;5.00;4.27;;;24.40;99.90;;;;;;5115872;28;20487;-60
2023/06/19 09:50:14;;;;;;;4.80;4.00;;;25.10;99.90;;;;;;5115740;28;20558;-58
2023/06/19 09:52:42;;;;;;;4.90;4.43;;;25.40;99.90;;;;;;5115290;28;20903;-58
2023/06/19 09:55:12;;;;;;;5.13;4.63;;;25.50;99.90;;;;;;5113089;28;20464;-58
2023/06/19 09:57:42;;;;;;;6.53;4.03;;;25.40;99.90;;;;;;5111844;28;20455;-58
2023/06/19 10:00:12;;;;;;;4.40;4.03;;;25.60;99.90;;;;;;5118755;28;20473;-58
2023/06/19 10:02:41;;;;;;;4.90;4.50;;;25.30;57.50;;;;;;5125781;27;20490;-58
2023/06/19 10:05:12;;;;;;;4.80;4.30;;;25.40;74.80;;;;;;5119752;28;20470;-58
2023/06/19 10:07:42;;;;;;;5.13;4.23;;;25.40;99.90;;;;;;5125376;28;20486;-58
2023/06/19 10:10:12;;;;;;;5.33;4.83;;;25.40;47.20;;;;;;5118963;27;20567;-58
2023/06/19 10:12:43;;;;;;;5.93;5.03;;;25.50;41.70;;;;;;5118847;28;20475;-58
2023/06/19 10:15:12;;;;;;;5.10;4.70;;;25.60;63.00;;;;;;5139867;27;20466;-58
2023/06/19 10:17:43;;;;;;;5.60;5.07;;;26.30;57.40;;;;;;5125903;27;20494;-58
2023/06/19 10:20:22;;;;;;;5.77;5.20;;;27.20;5.10;;;;;;5100319;28;20479;-58
2023/06/19 10:22:53;;;;;;;5.83;5.30;;;27.90;1.00;;;;;;5100031;28;20456;-58
2023/06/19 10:25:23;;;;;;;4.90;4.40;;;27.50;1.00;;;;;;5125737;27;20458;-58
2023/06/19 10:27:52;;;;;;;6.07;5.57;;;27.10;1.00;;;;;;5130654;27;20485;-58
2023/06/19 10:30:20;;;;;;;6.80;6.20;;;27.00;1.00;;;;;;5139592;27;20469;-57
2023/06/19 10:32:48;;;;;;;5.70;5.10;;;26.90;1.00;;;;;;5140946;27;20545;-58
2023/06/19 10:35:16;;;;;;;6.33;5.47;;;27.40;1.00;;;;;;5133745;27;20508;-51
2023/06/19 10:37:44;;;;;;;5.63;5.17;;;28.00;1.00;;;;;;5121235;27;20475;-56
2023/06/19 10:40:12;;;;;;;6.90;5.63;;;28.40;1.00;;;;;;5117995;27;20554;-57
2023/06/19 10:42:40;;;;;;;6.20;5.70;;;28.90;1.00;;;;;;5118719;27;20498;-60
2023/06/19 10:45:11;;;;;;;6.60;6.10;;;29.20;99.90;;;;;;5114752;27;20549;-59
2023/06/19 10:47:41;;;;;;;5.17;4.67;;;29.50;99.90;;;;;;5112199;27;20491;-57
2023/06/19 10:50:12;;;;;;;6.07;5.57;;;29.20;99.90;;;;;;5109828;27;20768;-57
2023/06/19 10:52:44;;;;;;;6.30;5.67;;;29.10;99.90;;;;;;5123052;27;20463;-58
2023/06/19 10:55:12;;;;;;;5.30;4.80;;;28.90;99.90;;;;;;5123292;27;20436;-56
2023/06/19 10:57:40;;;;;;;7.07;5.47;;;28.70;99.90;;;;;;5137703;27;20461;-52
2023/06/19 11:00:14;;;;;;;5.47;4.97;;;28.30;99.90;;;;;;5107160;28;20499;-58
2023/06/19 11:02:43;;;;;;;6.20;5.67;;;28.60;99.90;;;;;;5101129;28;20872;-58
2023/06/19 11:05:12;;;;;;;6.00;5.40;;;29.10;99.90;;;;;;5115590;27;20472;-57
2023/06/19 11:07:39;;;;;;;5.17;4.73;;;28.80;99.90;;;;;;5114248;28;20495;-59
2023/06/19 11:10:08;;;;;;;6.20;5.60;;;29.00;99.90;;;;;;5116676;28;20495;-59
2023/06/19 11:12:35;;;;;;;6.07;5.57;;;28.90;99.90;;;;;;5119731;27;20793;-58
2023/06/19 11:15:07;;;;;;;5.63;4.90;;;28.70;99.90;;;;;;5113231;28;20471;-59
2023/06/19 11:17:36;;;;;;;5.80;5.30;;;28.40;99.90;;;;;;5120134;27;20459;-60
2023/06/19 11:20:05;;;;;;;6.10;5.50;;;28.40;99.90;;;;;;5101880;28;20477;-59
2023/06/19 11:22:39;;;;;;;6.83;5.90;;;28.40;99.90;;;;;;5115946;28;20830;-59
2023/06/19 11:25:08;;;;;;;5.53;5.03;;;28.00;99.90;;;;;;5118984;28;20876;-58
2023/06/19 11:27:38;;;;;;;6.17;5.67;;;27.90;99.90;;;;;;5119589;28;20487;-56
2023/06/19 11:30:09;;;;;;;5.87;5.23;;;27.50;99.90;;;;;;5119332;28;20463;-56
2023/06/19 11:32:41;;;;;;;5.70;5.30;;;28.10;99.90;;;;;;5119287;28;20463;-58
2023/06/19 11:35:11;;;;;;;6.00;5.40;;;28.00;99.90;;;;;;5119337;28;20459;-59
2023/06/19 11:37:41;;;;;;;5.93;5.37;;;28.10;99.90;;;;;;5119457;28;20550;-59
2023/06/19 11:40:14;;;;;;;8.70;6.10;;;28.20;99.90;;;;;;5118541;28;20959;-58
2023/06/19 11:42:50;;;;;;;6.30;5.80;;;28.10;99.90;;;;;;5118829;27;20470;-57
2023/06/19 11:45:17;;;;;;;6.50;5.83;;;28.30;99.90;;;;;;5118495;28;20505;-58
2023/06/19 11:47:47;;;;;;;6.67;4.60;;;28.40;99.90;;;;;;5114797;28;20487;-59
2023/06/19 11:50:15;;;;;;;6.30;5.80;;;28.60;99.90;;;;;;5117706;28;20482;-59
2023/06/19 11:52:45;;;;;;;6.10;5.60;;;28.70;99.90;;;;;;5118166;28;20455;-58
2023/06/19 11:55:14;;;;;;;6.93;5.30;;;29.30;99.90;;;;;;5118567;28;20557;-58
2023/06/19 11:57:41;;;;;;;6.67;6.07;;;29.80;99.90;;;;;;5117811;28;20520;-59
2023/06/19 12:00:16;;;;;;;6.97;6.37;;;30.10;99.90;;;;;;5117959;28;20534;-59
2023/06/19 12:02:48;;;;;;;5.90;5.30;;;30.80;99.90;;;;;;5117835;28;20491;-58
2023/06/19 12:05:15;;;;;;;5.27;4.87;;;30.50;99.90;;;;;;5118552;28;20459;-58
2023/06/19 12:07:43;;;;;;;6.10;5.53;;;30.80;99.90;;;;;;5117494;28;20484;-59
2023/06/19 12:10:12;;;;;;;5.63;5.13;;;31.40;99.90;;;;;;5118438;28;20501;-59
2023/06/19 12:12:39;;;;;;;6.73;6.23;;;31.50;99.90;;;;;;5118448;28;20470;-59
2023/06/19 12:15:08;;;;;;;7.30;5.90;;;32.00;99.90;;;;;;5118341;28;20450;-58
2023/06/19 12:17:35;;;;;;;5.77;5.33;;;32.30;99.90;;;;;;5108149;28;20466;-59
2023/06/19 12:20:06;;;;;;;6.83;6.20;;;32.40;99.90;;;;;;5117876;28;20465;-61
2023/06/19 12:22:34;;;;;;;5.87;4.80;;;32.30;99.90;;;;;;5117728;28;20491;-59
2023/06/19 12:25:01;;;;;;;6.33;5.80;;;32.00;94.30;;;;;;5117914;28;20538;-59
2023/06/19 12:27:28;;;;;;;6.33;5.83;;;31.50;69.00;;;;;;5116543;28;20493;-59
2023/06/19 12:29:57;;;;;;;9.03;5.83;;;30.90;40.60;;;;;;5116733;28;20459;-59
2023/06/19 12:32:25;;;;;;;6.53;5.97;;;31.30;52.30;;;;;;5112135;28;20551;-59
2023/06/19 12:34:53;;;;;;;9.23;6.53;;;31.80;63.80;;;;;;5115595;28;20489;-59
2023/06/19 12:37:22;;;;;;;5.80;5.37;;;31.70;52.50;;;;;;5117209;28;20455;-59
2023/06/19 12:39:51;;;;;;;6.20;5.33;;;31.20;37.20;;;;;;5117016;28;20508;-59
2023/06/19 12:42:18;;;;;;;6.60;5.97;;;31.40;44.80;;;;;;5116407;28;20457;-60
2023/06/19 12:44:46;;;;;;;7.30;6.67;;;30.80;8.10;;;;;;5115720;28;20880;-61
2023/06/19 12:47:13;;;;;;;7.03;6.33;;;31.10;19.00;;;;;;5114452;28;20446;-60
2023/06/19 12:49:40;;;;;;;7.47;5.37;;;31.60;16.80;;;;;;5116344;28;20729;-60
2023/06/19 12:52:09;;;;;;;5.97;4.87;;;32.00;25.60;;;;;;5115258;28;20465;-59
2023/06/19 12:54:39;;;;;;;7.13;6.53;;;31.50;13.70;;;;;;5115849;28;20465;-59